createdAt,value
2019-03-16T00:00:32.402Z,60.50
2019-03-16T00:03:02.743Z,58.60
2019-03-16T00:05:33.109Z,59.80
2019-03-16T00:08:03.761Z,60.10
2019-03-16T00:10:34.508Z,59.40
2019-03-16T00:13:05.278Z,60.70
2019-03-16T00:15:35.638Z,58.90
2019-03-16T00:18:06.092Z,58.50
2019-03-16T00:20:36.717Z,58.90
2019-03-16T00:23:07.070Z,59.40
2019-03-16T00:25:37.776Z,58.50
2019-03-16T00:28:09.767Z,61.20
2019-03-16T00:30:41.104Z,61.10
2019-03-16T00:33:11.364Z,61.50
2019-03-16T00:35:41.708Z,61.20
2019-03-16T00:38:12.098Z,61.10
2019-03-16T00:40:43.102Z,61.10
2019-03-16T00:43:15.248Z,61.00
2019-03-16T00:45:46.102Z,61.50
2019-03-16T00:48:16.720Z,61.30
2019-03-16T00:50:47.383Z,59.90
2019-03-16T00:53:17.752Z,60.40
2019-03-16T00:55:48.839Z,59.20
2019-03-16T00:58:19.821Z,60.60
2019-03-16T01:00:50.248Z,60.10
2019-03-16T01:03:20.972Z,60.70
2019-03-16T01:05:51.462Z,60.90
2019-03-16T01:08:21.985Z,61.70
2019-03-16T01:10:54.168Z,61.10
2019-03-16T01:13:25.918Z,61.00
2019-03-16T01:15:56.264Z,60.60
2019-03-16T01:18:26.698Z,60.90
2019-03-16T01:20:57.638Z,61.00
2019-03-16T01:23:28.266Z,60.30
2019-03-16T01:26:00.102Z,60.50
2019-03-16T01:28:31.943Z,59.80
2019-03-16T01:31:02.745Z,59.80
2019-03-16T01:33:34.530Z,59.40
2019-03-16T01:36:04.814Z,60.00
2019-03-16T01:38:36.111Z,59.40
2019-03-16T01:41:06.689Z,58.20
2019-03-16T01:43:37.118Z,58.40
2019-03-16T01:46:08.557Z,58.50
2019-03-16T01:48:40.326Z,59.10
2019-03-16T01:51:12.174Z,58.80
2019-03-16T01:53:42.522Z,59.90
2019-03-16T01:56:13.247Z,59.60
2019-03-16T01:58:45.669Z,60.20
2019-03-16T02:01:16.985Z,59.90
2019-03-16T02:03:47.696Z,60.90
2019-03-16T02:06:19.877Z,59.70
2019-03-16T02:08:53.033Z,60.30
2019-03-16T02:11:23.907Z,61.10
2019-03-16T02:13:54.629Z,62.30
2019-03-16T02:16:25.065Z,61.10
2019-03-16T02:18:55.551Z,61.20
2019-03-16T02:21:26.523Z,62.00
2019-03-16T02:23:57.013Z,61.40
2019-03-16T02:26:29.136Z,61.40
2019-03-16T02:29:00.562Z,60.60
2019-03-16T02:31:32.310Z,61.70
2019-03-16T02:34:04.023Z,61.30
2019-03-16T02:36:34.548Z,61.90
2019-03-16T02:39:06.961Z,60.50
2019-03-16T02:41:40.746Z,60.20
2019-03-16T02:44:11.690Z,60.50
2019-03-16T02:46:42.231Z,61.70
2019-03-16T02:49:14.464Z,60.40
2019-03-16T02:51:44.924Z,61.50
2019-03-16T02:54:15.720Z,61.20
2019-03-16T02:56:47.774Z,61.20
2019-03-16T02:59:19.640Z,59.70
2019-03-16T03:01:50.130Z,59.20
2019-03-16T03:04:20.536Z,59.20
2019-03-16T03:06:52.449Z,58.30
2019-03-16T03:09:23.821Z,58.30
2019-03-16T03:11:56.088Z,59.90
2019-03-16T03:14:27.475Z,58.90
2019-03-16T03:16:57.850Z,58.20
2019-03-16T03:19:28.368Z,59.30
2019-03-16T03:22:02.070Z,60.50
2019-03-16T03:24:34.252Z,58.60
2019-03-16T03:27:06.865Z,59.70
2019-03-16T03:29:39.334Z,58.30
2019-03-16T03:32:10.667Z,58.80
2019-03-16T03:34:42.506Z,58.60
2019-03-16T03:37:12.982Z,58.70
2019-03-16T03:39:43.464Z,59.80
2019-03-16T03:42:13.841Z,58.40
2019-03-16T03:44:44.231Z,59.00
2019-03-16T03:47:15.644Z,57.90
2019-03-16T03:49:46.009Z,59.50
2019-03-16T03:52:19.541Z,59.70
2019-03-16T03:54:50.294Z,56.90
2019-03-16T03:57:22.090Z,58.10
2019-03-16T03:59:52.411Z,58.00
2019-03-16T04:02:25.723Z,57.80
2019-03-16T04:04:56.488Z,58.60
2019-03-16T04:07:28.764Z,58.40
2019-03-16T04:09:59.193Z,58.40
2019-03-16T04:12:30.221Z,59.40
2019-03-16T04:15:02.204Z,57.60
2019-03-16T04:17:32.895Z,58.60
2019-03-16T04:20:05.714Z,57.80
2019-03-16T04:22:36.610Z,57.70
2019-03-16T04:25:08.221Z,58.70
2019-03-16T04:27:40.565Z,58.60
2019-03-16T04:30:11.024Z,58.60
2019-03-16T04:32:46.305Z,58.70
2019-03-16T04:35:17.952Z,58.40
2019-03-16T04:37:48.461Z,58.70
2019-03-16T04:40:18.891Z,58.50
2019-03-16T04:42:49.680Z,56.70
2019-03-16T04:45:22.367Z,57.70
2019-03-16T04:47:52.727Z,57.00
2019-03-16T04:50:23.204Z,56.90
2019-03-16T04:52:54.559Z,55.80
2019-03-16T04:55:25.941Z,56.10
2019-03-16T04:57:59.297Z,57.60
2019-03-16T05:00:30.506Z,56.00
2019-03-16T05:03:01.904Z,54.60
2019-03-16T05:05:35.301Z,56.00
2019-03-16T05:08:06.874Z,55.10
2019-03-16T05:10:38.856Z,55.30
2019-03-16T05:13:12.010Z,54.00
2019-03-16T05:15:44.710Z,54.50
2019-03-16T05:18:17.087Z,54.10
2019-03-16T05:20:47.883Z,52.10
2019-03-16T05:23:20.204Z,53.00
2019-03-16T05:25:50.889Z,52.10
2019-03-16T05:28:22.130Z,51.40
2019-03-16T05:30:52.508Z,51.80
2019-03-16T05:33:22.964Z,51.80
2019-03-16T05:35:55.923Z,51.50
2019-03-16T05:38:26.302Z,49.60
2019-03-16T05:40:57.864Z,49.70
2019-03-16T05:43:28.386Z,48.60
2019-03-16T05:45:58.823Z,46.90
2019-03-16T05:48:30.620Z,46.00
2019-03-16T05:51:01.301Z,46.70
2019-03-16T05:53:32.095Z,46.40
2019-03-16T05:56:03.480Z,45.60
2019-03-16T05:58:34.285Z,44.40
2019-03-16T06:01:04.713Z,45.50
2019-03-16T06:03:39.486Z,44.90
2019-03-16T06:06:10.321Z,44.50
2019-03-16T06:08:40.819Z,44.80
2019-03-16T06:11:13.249Z,43.30
2019-03-16T06:13:43.539Z,43.20
2019-03-16T06:16:15.810Z,43.60
2019-03-16T06:18:48.603Z,42.60
2019-03-16T06:21:20.401Z,43.00
2019-03-16T06:23:52.028Z,43.20
2019-03-16T06:26:23.983Z,42.50
2019-03-16T06:28:56.691Z,42.50
2019-03-16T06:31:29.553Z,43.40
2019-03-16T06:34:01.787Z,42.20
2019-03-16T06:36:33.775Z,41.60
2019-03-16T06:39:07.176Z,42.00
2019-03-16T06:41:43.229Z,43.30
2019-03-16T06:44:12.430Z,42.90
2019-03-16T06:46:42.832Z,42.30
2019-03-16T06:49:13.349Z,41.10
2019-03-16T06:51:43.717Z,40.80
2019-03-16T06:54:14.148Z,39.60
2019-03-16T06:56:44.988Z,40.00
2019-03-16T06:59:16.092Z,39.50
2019-03-16T07:01:46.844Z,40.40
2019-03-16T07:04:17.231Z,39.50
2019-03-16T07:06:48.037Z,39.60
2019-03-16T07:09:19.684Z,39.20
2019-03-16T07:11:50.121Z,40.70
2019-03-16T07:14:20.853Z,38.40
2019-03-16T07:17:01.571Z,38.50
2019-03-16T07:19:28.996Z,37.30
2019-03-16T07:22:01.236Z,37.40
2019-03-16T07:24:33.068Z,37.50
2019-03-16T07:27:03.832Z,37.00
2019-03-16T07:29:34.387Z,38.70
2019-03-16T07:32:06.855Z,37.20
2019-03-16T07:34:39.145Z,36.70
2019-03-16T07:37:12.712Z,37.80
2019-03-16T07:39:44.498Z,35.80
2019-03-16T07:42:14.907Z,36.20
2019-03-16T07:44:45.967Z,35.00
2019-03-16T07:47:20.486Z,33.70
2019-03-16T07:49:52.602Z,33.60
2019-03-16T07:52:23.714Z,33.30
2019-03-16T07:54:55.942Z,32.60
2019-03-16T07:57:39.209Z,30.70
2019-03-16T07:59:58.975Z,30.30
2019-03-16T08:02:29.745Z,29.80
2019-03-16T08:05:01.864Z,29.40
2019-03-16T08:07:32.266Z,29.00
2019-03-16T08:10:03.500Z,28.90
2019-03-16T08:12:36.089Z,28.70
2019-03-16T08:15:13.151Z,28.30
2019-03-16T08:17:43.609Z,29.20
2019-03-16T08:20:14.447Z,29.30
2019-03-16T08:22:46.933Z,30.00
2019-03-16T08:25:19.444Z,29.10
2019-03-16T08:27:54.437Z,29.30
2019-03-16T08:30:23.692Z,28.90
2019-03-16T08:32:55.175Z,29.40
2019-03-16T08:35:27.108Z,28.90
2019-03-16T08:37:59.229Z,28.50
2019-03-16T08:40:32.161Z,28.10
2019-03-16T08:43:04.697Z,28.00
2019-03-16T08:45:36.932Z,28.00
2019-03-16T08:48:21.809Z,27.50
2019-03-16T08:50:41.092Z,27.40
2019-03-16T08:53:12.538Z,27.30
2019-03-16T08:55:44.321Z,27.50
2019-03-16T08:58:15.056Z,26.60
2019-03-16T09:00:48.496Z,25.10
2019-03-16T09:03:22.084Z,25.60
2019-03-16T09:05:53.580Z,25.00
2019-03-16T09:08:25.596Z,25.20
2019-03-16T09:10:58.233Z,24.70
2019-03-16T09:13:28.935Z,24.90
2019-03-16T09:16:01.208Z,25.10
2019-03-16T09:18:32.659Z,25.00
2019-03-16T09:21:03.451Z,23.60
2019-03-16T09:23:34.282Z,22.80
2019-03-16T09:26:06.682Z,22.10
2019-03-16T09:28:38.046Z,20.60
2019-03-16T09:31:08.455Z,19.80
2019-03-16T09:33:38.925Z,20.90
2019-03-16T09:36:09.368Z,18.90
2019-03-16T09:38:42.596Z,20.90
2019-03-16T09:41:13.028Z,19.40
2019-03-16T09:43:43.768Z,20.20
2019-03-16T09:46:14.912Z,20.40
2019-03-16T09:48:46.288Z,20.90
2019-03-16T09:51:21.501Z,21.20
2019-03-16T09:53:53.070Z,19.80
2019-03-16T09:56:24.122Z,19.80
2019-03-16T09:58:56.495Z,19.60
2019-03-16T10:01:26.940Z,19.80
2019-03-16T10:03:59.284Z,18.70
2019-03-16T10:06:29.873Z,19.70
2019-03-16T10:09:02.390Z,18.70
2019-03-16T10:11:34.304Z,18.50
2019-03-16T10:14:04.736Z,18.90
2019-03-16T10:16:35.373Z,18.60
2019-03-16T10:19:06.154Z,18.50
2019-03-16T10:21:37.161Z,16.20
2019-03-16T10:24:07.719Z,16.50
2019-03-16T10:26:40.882Z,16.80
2019-03-16T10:29:12.852Z,14.80
2019-03-16T10:31:46.118Z,10.60
2019-03-16T10:34:19.618Z,9.20
2019-03-16T10:36:50.212Z,9.30
2019-03-16T10:39:21.877Z,10.10
2019-03-16T10:41:52.316Z,11.70
2019-03-16T10:44:23.032Z,12.50
2019-03-16T10:46:53.523Z,13.20
2019-03-16T10:49:25.329Z,14.60
2019-03-16T10:51:56.545Z,14.80
2019-03-16T10:54:28.027Z,14.50
2019-03-16T10:57:04.279Z,14.50
2019-03-16T10:59:34.559Z,14.20
2019-03-16T11:02:07.958Z,14.80
2019-03-16T11:04:39.723Z,15.70
2019-03-16T11:07:13.116Z,15.90
2019-03-16T11:09:43.684Z,15.70
2019-03-16T11:12:14.504Z,14.50
2019-03-16T11:14:49.600Z,11.60
2019-03-16T11:17:20.053Z,9.60
2019-03-16T11:19:50.376Z,10.80
2019-03-16T11:22:20.762Z,11.20
2019-03-16T11:24:53.543Z,12.50
2019-03-16T11:27:25.325Z,14.20
2019-03-16T11:29:57.755Z,14.80
2019-03-16T11:32:28.994Z,14.90
2019-03-16T11:35:02.791Z,15.80
2019-03-16T11:37:33.870Z,16.30
2019-03-16T11:40:05.585Z,16.90
2019-03-16T11:42:36.363Z,16.90
2019-03-16T11:45:07.502Z,16.60
2019-03-16T11:47:37.892Z,16.90
2019-03-16T11:50:08.665Z,15.60
2019-03-16T11:52:40.618Z,14.60
2019-03-16T11:55:12.766Z,14.40
2019-03-16T11:57:44.744Z,13.50
2019-03-16T12:00:16.978Z,13.60
2019-03-16T12:02:47.397Z,12.40
2019-03-16T12:05:21.528Z,13.50
2019-03-16T12:07:52.274Z,12.70
2019-03-16T12:10:24.548Z,13.90
2019-03-16T12:12:54.944Z,12.60
2019-03-16T12:15:25.698Z,12.50
2019-03-16T12:17:56.137Z,12.90
2019-03-16T12:20:26.608Z,13.30
2019-03-16T12:22:57.711Z,13.10
2019-03-16T12:25:28.097Z,13.50
2019-03-16T12:28:00.166Z,11.80
2019-03-16T12:30:33.726Z,10.80
2019-03-16T12:33:04.562Z,11.40
2019-03-16T12:35:35.367Z,11.60
2019-03-16T12:38:07.115Z,11.90
2019-03-16T12:40:39.303Z,11.90
2019-03-16T12:43:11.449Z,12.60
2019-03-16T12:45:45.145Z,12.30
2019-03-16T12:48:15.677Z,11.40
2019-03-16T12:50:47.332Z,11.30
2019-03-16T12:53:18.880Z,10.60
2019-03-16T12:55:51.130Z,9.00
2019-03-16T12:58:22.952Z,9.60
2019-03-16T13:00:53.733Z,9.10
2019-03-16T13:03:25.448Z,8.20
2019-03-16T13:05:59.736Z,7.70
2019-03-16T13:08:31.981Z,6.50
2019-03-16T13:11:03.059Z,6.60
2019-03-16T13:13:35.654Z,7.60
2019-03-16T13:16:06.121Z,7.50
2019-03-16T13:18:38.113Z,7.50
2019-03-16T13:21:10.106Z,7.10
2019-03-16T13:23:42.141Z,7.20
2019-03-16T13:26:12.612Z,6.10
2019-03-16T13:28:44.050Z,6.30
2019-03-16T13:31:14.970Z,6.30
2019-03-16T13:33:45.698Z,7.40
2019-03-16T13:36:16.204Z,7.60
2019-03-16T13:38:47.016Z,8.00
2019-03-16T13:41:17.834Z,7.80
2019-03-16T13:43:51.374Z,8.10
2019-03-16T13:46:21.832Z,7.40
2019-03-16T13:48:53.856Z,8.10
2019-03-16T13:51:24.525Z,7.40
2019-03-16T13:53:57.255Z,7.70
2019-03-16T13:56:27.682Z,7.70
2019-03-16T13:59:00.161Z,7.60
2019-03-16T14:01:33.124Z,6.70
2019-03-16T14:04:05.054Z,5.40
2019-03-16T14:06:35.669Z,5.00
2019-03-16T14:09:07.784Z,5.20
2019-03-16T14:11:41.129Z,4.80
2019-03-16T14:14:13.424Z,4.80
2019-03-16T14:16:44.302Z,4.30
2019-03-16T14:19:14.648Z,4.00
2019-03-16T14:21:47.216Z,4.80
2019-03-16T14:24:17.939Z,4.70
2019-03-16T14:26:48.957Z,4.10
2019-03-16T14:29:23.402Z,5.00
2019-03-16T14:31:53.852Z,4.60
2019-03-16T14:34:25.765Z,4.30
2019-03-16T14:36:58.590Z,4.70
2019-03-16T14:39:30.904Z,5.30
2019-03-16T14:42:01.503Z,5.10
2019-03-16T14:44:36.424Z,5.70
2019-03-16T14:47:07.262Z,5.40
2019-03-16T14:49:38.072Z,4.60
2019-03-16T14:52:09.440Z,5.30
2019-03-16T14:54:40.221Z,5.10
2019-03-16T14:57:14.052Z,4.40
2019-03-16T14:59:46.033Z,4.10
2019-03-16T15:02:16.363Z,4.80
2019-03-16T15:04:48.923Z,3.80
2019-03-16T15:07:19.875Z,4.50
2019-03-16T15:09:53.044Z,4.70
2019-03-16T15:12:23.431Z,5.40
2019-03-16T15:14:56.608Z,4.90
2019-03-16T15:17:28.885Z,5.20
2019-03-16T15:19:59.338Z,5.50
2019-03-16T15:22:31.434Z,6.00
2019-03-16T15:25:02.252Z,5.90
2019-03-16T15:27:33.128Z,5.40
2019-03-16T15:30:04.148Z,6.20
2019-03-16T15:32:36.785Z,6.00
2019-03-16T15:35:08.400Z,5.30
2019-03-16T15:37:38.872Z,5.80
2019-03-16T15:40:10.524Z,6.10
2019-03-16T15:42:46.060Z,5.60
2019-03-16T15:45:17.967Z,5.50
2019-03-16T15:47:51.695Z,5.00
2019-03-16T15:50:23.095Z,4.50
2019-03-16T15:52:54.167Z,4.30
2019-03-16T15:55:25.150Z,4.20
2019-03-16T15:58:07.297Z,3.40
2019-03-16T16:00:30.071Z,2.00
2019-03-16T16:03:01.664Z,2.50
2019-03-16T16:05:32.467Z,2.60
2019-03-16T16:08:03.885Z,1.50
2019-03-16T16:10:34.312Z,1.90
2019-03-16T16:13:05.088Z,2.10
2019-03-16T16:15:37.680Z,2.60
2019-03-16T16:18:11.250Z,2.20
2019-03-16T16:20:42.059Z,1.00
2019-03-16T16:23:12.520Z,1.10
2019-03-16T16:25:42.952Z,1.00
2019-03-16T16:28:14.912Z,1.00
2019-03-16T16:30:45.659Z,1.20
2019-03-16T16:33:16.345Z,1.00
2019-03-16T16:35:47.905Z,1.00
2019-03-16T16:38:19.012Z,1.00
2019-03-16T16:40:50.800Z,1.00
2019-03-16T16:43:24.440Z,1.00
2019-03-16T16:45:56.081Z,1.00
2019-03-16T16:48:26.485Z,1.00
2019-03-16T16:50:57.041Z,1.00
2019-03-16T16:53:27.476Z,1.20
2019-03-16T16:56:01.657Z,1.00
2019-03-16T16:58:38.339Z,1.30
2019-03-16T17:01:08.943Z,1.40
2019-03-16T17:03:40.337Z,1.00
2019-03-16T17:06:10.807Z,1.80
2019-03-16T17:08:44.402Z,1.40
2019-03-16T17:11:17.609Z,2.50
2019-03-16T17:13:48.600Z,2.10
2019-03-16T17:16:20.862Z,1.80
2019-03-16T17:18:52.294Z,2.20
2019-03-16T17:21:24.194Z,2.80
2019-03-16T17:23:54.655Z,3.20
2019-03-16T17:26:25.414Z,3.00
2019-03-16T17:28:56.592Z,2.20
2019-03-16T17:31:28.147Z,3.20
2019-03-16T17:33:58.904Z,3.40
2019-03-16T17:36:29.301Z,3.80
2019-03-16T17:39:03.271Z,3.70
2019-03-16T17:41:35.761Z,3.80
2019-03-16T17:44:07.532Z,4.20
2019-03-16T17:46:38.544Z,4.20
2019-03-16T17:49:11.783Z,4.80
2019-03-16T17:51:42.852Z,4.70
2019-03-16T17:54:15.059Z,5.00
2019-03-16T17:56:45.862Z,4.40
2019-03-16T17:59:17.523Z,4.90
2019-03-16T18:01:54.531Z,5.10
2019-03-16T18:04:20.503Z,4.90
2019-03-16T18:06:50.912Z,5.40
2019-03-16T18:09:25.173Z,4.90
2019-03-16T18:11:56.717Z,5.10
2019-03-16T18:14:28.358Z,5.30
2019-03-16T18:17:00.343Z,5.80
2019-03-16T18:19:32.464Z,5.30
2019-03-16T18:22:04.305Z,5.50
2019-03-16T18:24:36.341Z,5.60
2019-03-16T18:27:07.141Z,5.60
2019-03-16T18:29:38.209Z,5.30
2019-03-16T18:32:10.315Z,4.70
2019-03-16T18:34:42.909Z,5.00
2019-03-16T18:37:15.092Z,5.10
2019-03-16T18:39:45.861Z,5.20
2019-03-16T18:42:17.848Z,5.00
2019-03-16T18:44:48.330Z,4.90
2019-03-16T18:47:18.760Z,5.20
2019-03-16T18:49:51.873Z,5.30
2019-03-16T18:52:22.502Z,5.60
2019-03-16T18:54:53.024Z,4.70
2019-03-16T18:57:24.653Z,4.90
2019-03-16T18:59:56.762Z,4.80
2019-03-16T19:02:27.125Z,4.60
2019-03-16T19:04:57.580Z,4.40
2019-03-16T19:07:29.794Z,3.90
2019-03-16T19:10:00.373Z,4.20
2019-03-16T19:12:33.339Z,4.10
2019-03-16T19:15:06.081Z,4.10
2019-03-16T19:17:38.373Z,3.70
2019-03-16T19:20:11.148Z,4.00
2019-03-16T19:22:43.987Z,4.10
2019-03-16T19:25:16.393Z,4.10
2019-03-16T19:27:47.139Z,4.50
2019-03-16T19:30:19.220Z,4.70
2019-03-16T19:32:50.025Z,4.90
2019-03-16T19:35:22.340Z,4.90
2019-03-16T19:37:52.813Z,5.40
2019-03-16T19:40:26.729Z,5.00
2019-03-16T19:42:58.247Z,5.70
2019-03-16T19:45:29.770Z,5.40
2019-03-16T19:48:03.144Z,5.20
2019-03-16T19:50:35.223Z,4.70
2019-03-16T19:53:05.650Z,4.60
2019-03-16T19:55:42.122Z,5.20
2019-03-16T19:58:13.208Z,4.60
2019-03-16T20:00:44.782Z,5.20
2019-03-16T20:03:15.481Z,5.00
2019-03-16T20:05:47.814Z,4.80
2019-03-16T20:08:27.569Z,4.70
2019-03-16T20:11:06.530Z,5.10
2019-03-16T20:13:32.746Z,5.30
2019-03-16T20:16:06.113Z,5.00
2019-03-16T20:18:36.871Z,5.00
2019-03-16T20:21:07.663Z,5.10
2019-03-16T20:23:39.411Z,4.50
2019-03-16T20:26:10.275Z,5.20
2019-03-16T20:28:40.664Z,4.80
2019-03-16T20:31:12.806Z,5.10
2019-03-16T20:33:45.407Z,4.70
2019-03-16T20:36:21.253Z,3.90
2019-03-16T20:38:51.589Z,3.90
2019-03-16T20:41:35.594Z,4.20
2019-03-16T20:43:55.776Z,4.60
2019-03-16T20:46:28.358Z,3.90
2019-03-16T20:48:59.843Z,4.00
2019-03-16T20:51:30.313Z,4.30
2019-03-16T20:54:01.503Z,3.60
2019-03-16T20:56:32.122Z,4.20
2019-03-16T20:59:02.572Z,3.80
2019-03-16T21:01:33.837Z,4.50
2019-03-16T21:04:06.826Z,3.70
2019-03-16T21:06:38.727Z,4.20
2019-03-16T21:09:11.696Z,4.20
2019-03-16T21:11:44.025Z,3.70
2019-03-16T21:14:14.496Z,4.80
2019-03-16T21:16:46.072Z,4.30
2019-03-16T21:19:16.435Z,4.20
2019-03-16T21:21:47.217Z,4.00
2019-03-16T21:24:19.601Z,4.40
2019-03-16T21:26:53.083Z,3.30
2019-03-16T21:29:26.319Z,4.20
2019-03-16T21:31:57.348Z,3.70
2019-03-16T21:34:28.962Z,3.60
2019-03-16T21:36:59.564Z,4.20
2019-03-16T21:39:33.719Z,4.40
2019-03-16T21:42:04.378Z,4.50
2019-03-16T21:44:35.973Z,4.70
2019-03-16T21:47:06.655Z,4.50
2019-03-16T21:49:39.075Z,4.50
2019-03-16T21:52:11.740Z,6.00
2019-03-16T21:54:43.704Z,6.40
2019-03-16T21:57:14.238Z,7.10
2019-03-16T21:59:47.258Z,8.10
2019-03-16T22:04:51.945Z,9.00
2019-03-16T22:07:24.760Z,10.30
2019-03-16T22:09:56.849Z,11.00
2019-03-16T22:12:29.172Z,11.50
2019-03-16T22:14:59.620Z,12.20
2019-03-16T22:17:31.475Z,13.10
2019-03-16T22:20:03.506Z,13.40
2019-03-16T22:22:33.921Z,13.80
2019-03-16T22:25:04.905Z,14.00
2019-03-16T22:27:36.526Z,14.10
2019-03-16T22:30:07.472Z,15.00
2019-03-16T22:32:38.985Z,15.90
2019-03-16T22:35:12.616Z,15.70
2019-03-16T22:37:46.101Z,15.30
2019-03-16T22:40:16.967Z,15.70
2019-03-16T22:42:48.523Z,16.30
2019-03-16T22:45:21.462Z,16.40
2019-03-16T22:47:52.276Z,16.40
2019-03-16T22:50:23.090Z,16.40
2019-03-16T22:52:55.405Z,16.40
2019-03-16T22:55:25.889Z,16.40
2019-03-16T22:57:57.291Z,16.40
2019-03-16T23:00:38.853Z,16.70
2019-03-16T23:03:11.166Z,16.60
2019-03-16T23:05:44.932Z,16.40
2019-03-16T23:08:20.246Z,16.40
2019-03-16T23:10:53.797Z,16.60
2019-03-16T23:13:28.336Z,16.50
2019-03-16T23:15:58.818Z,16.60
2019-03-16T23:18:29.206Z,16.50
2019-03-16T23:20:59.649Z,16.70
2019-03-16T23:23:31.889Z,16.50
2019-03-16T23:26:03.809Z,16.60
2019-03-16T23:28:36.200Z,16.90
2019-03-16T23:31:06.897Z,16.40
2019-03-16T23:33:37.298Z,16.30
2019-03-16T23:36:09.657Z,16.30
2019-03-16T23:38:40.286Z,16.10
2019-03-16T23:41:12.262Z,15.80
2019-03-16T23:43:43.164Z,15.70
2019-03-16T23:46:14.025Z,15.50
2019-03-16T23:48:46.575Z,15.20
2019-03-16T23:51:17.426Z,15.70
2019-03-16T23:53:49.624Z,15.40
2019-03-16T23:56:20.034Z,15.30
2019-03-16T23:58:50.812Z,15.00
